KCVN

Clovis Municipal Airport

Clovis, New Mexico, USA
METAR KCVN 181356Z AUTO 00000KT 10SM SCT110 19/18 A3022 RMK AO2 SLP198 T01940178
Observed Flight Rules
Aug-18 @ 13:56 UTC (55 minutes ago) Visual Flight Rules
Visibility Clouds
10 miles
  • Scattered at 11,000' AGL
Temperatures Readings
Current 19°C / 66°F
Dewpoint 18°C / 64°F
Humidity 94%
Altimeter 30.22" Hg
Pressure 1019.8 hPa
Elevation 1284
METAR KCVN 181356Z AUTO 00000KT 10SM SCT110 19/18 A3022 RMK AO2 SLP198 T01940178
Observed Flight Rules
Aug-18 @ 13:56 UTC
(55 minutes ago)
VFR
Clouds
  • Scattered at 11,000' AGL
Temperature Dewpoint
19°C / 66°F 18°C / 64°F
Humidity Altimeter Pressure
94% 30.22" Hg 1019.8 hPa